createdAt,value
2018-07-15T00:00:06.238Z,13.21
2018-07-15T00:01:06.472Z,13.17
2018-07-15T00:02:06.204Z,13.25
2018-07-15T00:03:06.200Z,13.27
2018-07-15T00:04:06.450Z,13.25
2018-07-15T00:05:06.188Z,13.24
2018-07-15T00:06:06.183Z,13.2
2018-07-15T00:07:06.429Z,13.21
2018-07-15T00:08:06.167Z,13.19
2018-07-15T00:09:06.421Z,13.29
2018-07-15T00:10:06.410Z,13.19
2018-07-15T00:11:06.413Z,13.25
2018-07-15T00:12:06.137Z,13.09
2018-07-15T00:13:06.132Z,13.07
2018-07-15T00:14:06.131Z,13.11
2018-07-15T00:15:06.119Z,13.13
2018-07-15T00:16:06.113Z,13.09
2018-07-15T00:17:06.134Z,13.11
2018-07-15T00:18:06.111Z,13.11
2018-07-15T00:19:06.356Z,13.13
2018-07-15T00:20:06.348Z,13.11
2018-07-15T00:21:06.340Z,13.09
2018-07-15T00:22:06.336Z,13.19
2018-07-15T00:23:06.336Z,13.11
2018-07-15T00:24:06.060Z,13.16
2018-07-15T00:25:06.052Z,13.13
2018-07-15T00:26:06.311Z,13.09
2018-07-15T00:27:06.301Z,13.07
2018-07-15T00:28:06.305Z,13.09
2018-07-15T00:29:06.292Z,13.1
2018-07-15T00:30:06.020Z,12.95
2018-07-15T00:31:06.270Z,13.06
2018-07-15T00:32:06.283Z,13.03
2018-07-15T00:33:06.329Z,12.92
2018-07-15T00:34:06.269Z,12.99
2018-07-15T00:35:06.035Z,12.95
2018-07-15T00:36:06.278Z,12.91
2018-07-15T00:37:06.011Z,12.92
2018-07-15T00:38:06.034Z,12.88
2018-07-15T00:39:06.280Z,12.99
2018-07-15T00:40:06.272Z,12.92
2018-07-15T00:41:06.269Z,12.96
2018-07-15T00:42:05.998Z,12.92
2018-07-15T00:43:06.257Z,12.94
2018-07-15T00:44:05.985Z,12.96
2018-07-15T00:45:06.242Z,12.92
2018-07-15T00:46:06.235Z,12.94
2018-07-15T00:47:05.967Z,12.96
2018-07-15T00:48:05.960Z,12.94
2018-07-15T00:49:06.209Z,12.92
2018-07-15T00:50:05.690Z,12.95
2018-07-15T00:51:06.196Z,12.91
2018-07-15T00:52:05.937Z,12.92
2018-07-15T00:53:06.186Z,12.98
2018-07-15T00:54:05.922Z,12.91
2018-07-15T00:55:06.168Z,12.89
2018-07-15T00:56:06.161Z,12.88
2018-07-15T00:57:05.904Z,12.84
2018-07-15T00:58:06.154Z,12.84
2018-07-15T00:59:05.880Z,12.88
2018-07-15T01:00:06.135Z,12.88
2018-07-15T01:01:05.872Z,12.84
2018-07-15T01:02:06.123Z,12.91
2018-07-15T01:03:05.597Z,12.84
2018-07-15T01:04:05.857Z,12.81
2018-07-15T01:05:05.839Z,12.86
2018-07-15T01:06:05.834Z,12.83
2018-07-15T01:07:05.823Z,12.73
2018-07-15T01:08:06.090Z,12.78
2018-07-15T01:09:06.072Z,12.7
2018-07-15T01:10:05.807Z,12.73
2018-07-15T01:11:06.054Z,12.7
2018-07-15T01:12:05.794Z,12.7
2018-07-15T01:13:05.788Z,12.62
2018-07-15T01:14:05.776Z,12.56
2018-07-15T01:15:05.770Z,12.53
2018-07-15T01:16:06.021Z,12.56
2018-07-15T01:17:05.755Z,12.62
2018-07-15T01:18:06.012Z,12.63
2018-07-15T01:19:06.005Z,12.59
2018-07-15T01:20:05.738Z,12.63
2018-07-15T01:21:05.731Z,12.55
2018-07-15T01:22:05.977Z,12.62
2018-07-15T01:23:05.979Z,12.55
2018-07-15T01:24:05.967Z,12.63
2018-07-15T01:25:05.703Z,12.47
2018-07-15T01:26:05.693Z,12.48
2018-07-15T01:27:05.688Z,12.58
2018-07-15T01:28:05.942Z,12.47
2018-07-15T01:29:05.927Z,12.62
2018-07-15T01:30:05.921Z,12.52
2018-07-15T01:31:05.661Z,12.44
2018-07-15T01:32:05.909Z,12.45
2018-07-15T01:33:05.904Z,12.41
2018-07-15T01:34:05.377Z,12.31
2018-07-15T01:35:05.627Z,12.33
2018-07-15T01:36:05.884Z,12.29
2018-07-15T01:37:05.878Z,12.34
2018-07-15T01:38:05.610Z,12.41
2018-07-15T01:39:05.864Z,12.28
2018-07-15T01:40:05.592Z,12.41
2018-07-15T01:41:05.842Z,12.38
2018-07-15T01:42:05.857Z,12.29
2018-07-15T01:43:05.833Z,12.28
2018-07-15T01:44:05.824Z,12.33
2018-07-15T01:45:05.820Z,12.33
2018-07-15T01:46:05.807Z,12.37
2018-07-15T01:47:05.803Z,12.36
2018-07-15T01:48:05.532Z,12.28
2018-07-15T01:49:05.787Z,12.31
2018-07-15T01:50:05.520Z,12.33
2018-07-15T01:51:05.521Z,12.34
2018-07-15T01:52:05.758Z,12.33
2018-07-15T01:53:05.751Z,12.29
2018-07-15T01:54:05.800Z,12.34
2018-07-15T01:55:05.739Z,12.34
2018-07-15T01:56:05.734Z,12.37
2018-07-15T01:57:05.470Z,12.29
2018-07-15T01:58:05.715Z,12.31
2018-07-15T01:59:05.704Z,12.2
2018-07-15T02:00:05.703Z,12.23
2018-07-15T02:01:05.698Z,12.23
2018-07-15T02:02:05.434Z,12.22
2018-07-15T02:03:05.682Z,12.25
2018-07-15T02:04:05.667Z,12.2
2018-07-15T02:05:05.664Z,12.25
2018-07-15T02:06:05.666Z,12.19
2018-07-15T02:07:05.387Z,12.2
2018-07-15T02:08:05.384Z,12.26
2018-07-15T02:09:05.376Z,12.28
2018-07-15T02:10:05.688Z,12.26
2018-07-15T02:11:05.366Z,12.28
2018-07-15T02:12:05.618Z,12.36
2018-07-15T02:13:05.607Z,12.2
2018-07-15T02:14:05.598Z,12.2
2018-07-15T02:15:05.591Z,12.16
2018-07-15T02:16:05.586Z,12.22
2018-07-15T02:17:05.331Z,12.16
2018-07-15T02:18:05.310Z,12.07
2018-07-15T02:19:05.556Z,12.05
2018-07-15T02:20:05.291Z,12.05
2018-07-15T02:21:05.284Z,12.04
2018-07-15T02:22:05.537Z,12.01
2018-07-15T02:23:05.014Z,12.03
2018-07-15T02:24:05.263Z,11.91
2018-07-15T02:25:05.254Z,11.89
2018-07-15T02:26:05.252Z,12
2018-07-15T02:27:04.979Z,11.95
2018-07-15T02:28:05.537Z,11.89
2018-07-15T02:29:05.481Z,11.85
2018-07-15T02:30:05.302Z,11.85
2018-07-15T02:31:05.468Z,11.88
2018-07-15T02:32:05.488Z,11.85
2018-07-15T02:33:05.447Z,11.79
2018-07-15T02:34:05.444Z,11.78
2018-07-15T02:35:05.175Z,11.82
2018-07-15T02:36:05.511Z,11.84
2018-07-15T02:37:05.178Z,11.79
2018-07-15T02:38:05.154Z,11.67
2018-07-15T02:39:05.407Z,11.66
2018-07-15T02:40:05.176Z,11.66
2018-07-15T02:41:05.133Z,11.66
2018-07-15T02:42:05.144Z,11.75
2018-07-15T02:43:05.370Z,11.73
2018-07-15T02:44:05.108Z,11.7
2018-07-15T02:45:05.105Z,11.79
2018-07-15T02:46:05.359Z,11.66
2018-07-15T02:47:05.356Z,11.63
2018-07-15T02:48:05.345Z,11.75
2018-07-15T02:49:05.073Z,11.68
2018-07-15T02:50:05.063Z,11.73
2018-07-15T02:51:05.054Z,11.73
2018-07-15T02:52:04.798Z,11.66
2018-07-15T02:53:05.308Z,11.66
2018-07-15T02:54:05.031Z,11.66
2018-07-15T02:55:05.289Z,11.68
2018-07-15T02:56:05.011Z,11.67
2018-07-15T02:57:05.271Z,11.73
2018-07-15T02:58:05.000Z,11.78
2018-07-15T02:59:04.994Z,11.82
2018-07-15T03:00:05.241Z,11.76
2018-07-15T03:01:04.717Z,11.82
2018-07-15T03:02:04.715Z,11.84
2018-07-15T03:03:05.219Z,11.84
2018-07-15T03:04:05.210Z,11.78
2018-07-15T03:05:05.203Z,11.89
2018-07-15T03:06:05.194Z,11.88
2018-07-15T03:07:05.198Z,11.88
2018-07-15T03:08:05.192Z,11.86
2018-07-15T03:09:05.187Z,11.86
2018-07-15T03:10:05.182Z,12
2018-07-15T03:11:04.900Z,11.94
2018-07-15T03:12:05.148Z,11.97
2018-07-15T03:13:04.906Z,11.97
2018-07-15T03:14:05.136Z,11.97
2018-07-15T03:15:05.124Z,11.98
2018-07-15T03:16:05.130Z,12.04
2018-07-15T03:17:04.851Z,12.04
2018-07-15T03:18:04.841Z,12
2018-07-15T03:19:05.106Z,12.05
2018-07-15T03:20:05.093Z,12.08
2018-07-15T03:21:05.077Z,12
2018-07-15T03:22:05.094Z,12.08
2018-07-15T03:23:05.064Z,12.13
2018-07-15T03:24:05.053Z,12.1
2018-07-15T03:25:05.044Z,12.15
2018-07-15T03:26:04.520Z,12.13
2018-07-15T03:27:05.030Z,12.15
2018-07-15T03:28:05.021Z,12.16
2018-07-15T03:29:05.046Z,12.19
2018-07-15T03:30:05.005Z,12.18
2018-07-15T03:31:05.007Z,12.15
2018-07-15T03:32:04.992Z,12.18
2018-07-15T03:33:04.468Z,12.22
2018-07-15T03:34:05.071Z,12.19
2018-07-15T03:35:04.983Z,12.18
2018-07-15T03:36:04.959Z,12.2
2018-07-15T03:37:04.950Z,12.2
2018-07-15T03:38:04.690Z,12.18
2018-07-15T03:39:04.940Z,12.18
2018-07-15T03:40:04.672Z,12.22
2018-07-15T03:41:04.659Z,12.16
2018-07-15T03:42:04.912Z,12.16
2018-07-15T03:43:04.902Z,12.11
2018-07-15T03:44:04.638Z,12.13
2018-07-15T03:45:04.891Z,12.18
2018-07-15T03:46:04.368Z,12.2
2018-07-15T03:47:04.621Z,12.11
2018-07-15T03:48:04.611Z,12.18
2018-07-15T03:49:04.857Z,12.1
2018-07-15T03:50:04.597Z,12.13
2018-07-15T03:51:04.843Z,12.03
2018-07-15T03:52:04.835Z,12.03
2018-07-15T03:53:04.574Z,12.13
2018-07-15T03:54:04.821Z,12.05
2018-07-15T03:55:04.553Z,12.04
2018-07-15T03:56:04.807Z,12.03
2018-07-15T03:57:04.801Z,12.1
2018-07-15T03:58:04.534Z,12.07
2018-07-15T03:59:04.786Z,12.07
2018-07-15T04:00:04.799Z,12.16
2018-07-15T04:01:04.794Z,12.07
2018-07-15T04:02:04.769Z,12.15
2018-07-15T04:03:04.495Z,12.18
2018-07-15T04:04:04.497Z,12.2
2018-07-15T04:05:04.476Z,12.25
2018-07-15T04:06:04.474Z,12.37
2018-07-15T04:07:04.466Z,12.37
2018-07-15T04:08:04.724Z,12.34
2018-07-15T04:09:04.851Z,12.34
2018-07-15T04:10:04.441Z,12.4
2018-07-15T04:11:04.435Z,12.4
2018-07-15T04:12:04.692Z,12.44
2018-07-15T04:13:04.162Z,12.43
2018-07-15T04:14:04.414Z,12.56
2018-07-15T04:15:04.440Z,12.52
2018-07-15T04:16:04.393Z,12.59
2018-07-15T04:17:04.385Z,12.61
2018-07-15T04:18:04.381Z,12.62
2018-07-15T04:19:04.372Z,12.65
2018-07-15T04:20:04.368Z,12.71
2018-07-15T04:21:04.107Z,12.71
2018-07-15T04:22:04.356Z,12.76
2018-07-15T04:23:04.602Z,12.71
2018-07-15T04:24:04.077Z,12.73
2018-07-15T04:25:04.327Z,12.76
2018-07-15T04:26:04.574Z,12.83
2018-07-15T04:27:04.570Z,12.84
2018-07-15T04:28:04.563Z,12.88
2018-07-15T04:29:04.299Z,12.88
2018-07-15T04:30:04.290Z,12.92
2018-07-15T04:31:04.542Z,12.96
2018-07-15T04:32:04.278Z,13.06
2018-07-15T04:33:04.268Z,12.98
2018-07-15T04:34:04.008Z,13.09
2018-07-15T04:35:04.268Z,13.13
2018-07-15T04:36:03.994Z,13.16
2018-07-15T04:37:04.242Z,13.19
2018-07-15T04:38:04.802Z,13.19
2018-07-15T04:39:04.230Z,13.27
2018-07-15T04:40:03.966Z,13.21
2018-07-15T04:41:04.469Z,13.24
2018-07-15T04:42:04.463Z,13.31
2018-07-15T04:43:04.196Z,13.36
2018-07-15T04:44:04.450Z,13.31
2018-07-15T04:45:04.185Z,13.37
2018-07-15T04:46:04.438Z,13.36
2018-07-15T04:47:04.181Z,13.37
2018-07-15T04:48:04.425Z,13.44
2018-07-15T04:49:04.413Z,13.42
2018-07-15T04:50:04.410Z,13.47
2018-07-15T04:51:04.404Z,13.42
2018-07-15T04:52:03.878Z,13.48
2018-07-15T04:53:04.137Z,13.55
2018-07-15T04:54:03.865Z,13.53
2018-07-15T04:55:03.913Z,13.51
2018-07-15T04:56:04.110Z,13.63
2018-07-15T04:57:04.104Z,13.72
2018-07-15T04:58:04.096Z,13.72
2018-07-15T04:59:04.088Z,13.75
2018-07-15T05:00:04.342Z,13.86
2018-07-15T05:01:04.077Z,13.81
2018-07-15T05:02:04.549Z,13.79
2018-07-15T05:03:04.323Z,13.99
2018-07-15T05:04:04.054Z,13.91
2018-07-15T05:05:04.305Z,13.94
2018-07-15T05:06:04.049Z,13.97
2018-07-15T05:07:04.039Z,13.95
2018-07-15T05:08:04.288Z,14.12
2018-07-15T05:09:04.022Z,14.13
2018-07-15T05:10:04.022Z,14.09
2018-07-15T05:11:04.010Z,14.23
2018-07-15T05:12:04.271Z,14.28
2018-07-15T05:13:04.261Z,14.3
2018-07-15T05:14:04.028Z,14.33
2018-07-15T05:15:04.249Z,14.34
2018-07-15T05:16:03.982Z,14.42
2018-07-15T05:17:03.974Z,14.48
2018-07-15T05:18:04.225Z,14.45
2018-07-15T05:19:03.973Z,14.48
2018-07-15T05:20:03.699Z,14.57
2018-07-15T05:21:03.955Z,14.64
2018-07-15T05:22:04.208Z,14.67
2018-07-15T05:23:04.196Z,14.74
2018-07-15T05:24:04.195Z,14.75
2018-07-15T05:25:04.453Z,14.85
2018-07-15T05:26:04.178Z,14.94
2018-07-15T05:27:04.171Z,14.97
2018-07-15T05:28:03.910Z,15.05
2018-07-15T05:29:04.161Z,15.05
2018-07-15T05:30:03.637Z,15.1
2018-07-15T05:31:03.890Z,15.12
2018-07-15T05:32:03.886Z,15.22
2018-07-15T05:33:03.624Z,15.18
2018-07-15T05:34:04.136Z,15.27
2018-07-15T05:35:04.014Z,15.43
2018-07-15T05:36:04.127Z,15.34
2018-07-15T05:37:04.115Z,15.37
2018-07-15T05:38:04.115Z,15.44
2018-07-15T05:39:04.125Z,15.4
2018-07-15T05:40:04.104Z,15.49
2018-07-15T05:41:03.840Z,15.56
2018-07-15T05:42:04.090Z,15.47
2018-07-15T05:43:04.084Z,15.58
2018-07-15T05:44:04.080Z,15.58
2018-07-15T05:45:03.819Z,15.62
2018-07-15T05:46:03.556Z,15.55
2018-07-15T05:47:03.808Z,15.65
2018-07-15T05:48:03.800Z,15.71
2018-07-15T05:49:04.057Z,15.75
2018-07-15T05:50:03.797Z,15.71
2018-07-15T05:51:03.786Z,15.84
2018-07-15T05:52:04.121Z,15.86
2018-07-15T05:53:03.774Z,15.93
2018-07-15T05:54:03.772Z,15.95
2018-07-15T05:55:04.030Z,15.98
2018-07-15T05:56:04.017Z,16.06
2018-07-15T05:57:04.018Z,16.04
2018-07-15T05:58:03.901Z,15.93
2018-07-15T05:59:03.746Z,16.04
2018-07-15T06:00:03.742Z,16.07
2018-07-15T06:01:03.994Z,16.11
2018-07-15T06:02:03.994Z,16.1
2018-07-15T06:03:03.472Z,16.17
2018-07-15T06:04:03.726Z,16.21
2018-07-15T06:05:03.986Z,16.26
2018-07-15T06:06:03.715Z,16.16
2018-07-15T06:07:03.970Z,16.29
2018-07-15T06:08:03.973Z,16.27
2018-07-15T06:09:03.957Z,16.27
2018-07-15T06:10:03.438Z,16.34
2018-07-15T06:11:03.950Z,16.45
2018-07-15T06:12:03.945Z,16.54
2018-07-15T06:13:03.683Z,16.47
2018-07-15T06:14:03.939Z,16.48
2018-07-15T06:15:03.681Z,16.52
2018-07-15T06:16:03.669Z,16.55
2018-07-15T06:17:04.022Z,16.59
2018-07-15T06:18:03.981Z,16.66
2018-07-15T06:19:03.402Z,16.72
2018-07-15T06:20:03.655Z,16.66
2018-07-15T06:21:03.910Z,16.8
2018-07-15T06:22:03.646Z,16.81
2018-07-15T06:23:03.651Z,16.74
2018-07-15T06:24:03.900Z,16.81
2018-07-15T06:25:03.632Z,16.85
2018-07-15T06:26:03.888Z,16.87
2018-07-15T06:27:03.890Z,16.85
2018-07-15T06:28:03.617Z,16.97
2018-07-15T06:29:03.617Z,17
2018-07-15T06:30:03.871Z,16.95
2018-07-15T06:31:03.708Z,16.92
2018-07-15T06:32:03.844Z,17.03
2018-07-15T06:33:03.607Z,17.1
2018-07-15T06:34:03.860Z,17.03
2018-07-15T06:35:03.590Z,17.02
2018-07-15T06:36:03.588Z,17.05
2018-07-15T06:37:03.585Z,17.12
2018-07-15T06:38:03.838Z,17.17
2018-07-15T06:39:03.829Z,17.28
2018-07-15T06:40:03.852Z,17.28
2018-07-15T06:41:03.576Z,17.43
2018-07-15T06:42:03.825Z,17.5
2018-07-15T06:43:03.560Z,17.66
2018-07-15T06:44:03.815Z,17.71
2018-07-15T06:45:03.812Z,17.9
2018-07-15T06:46:03.561Z,18.05
2018-07-15T06:47:03.810Z,18.29
2018-07-15T06:48:03.802Z,18.81
2018-07-15T06:49:03.807Z,19.49
2018-07-15T06:50:03.795Z,20.34
2018-07-15T06:51:03.791Z,21.09
2018-07-15T06:52:03.797Z,21.7
2018-07-15T06:53:03.530Z,22.39
2018-07-15T06:54:03.738Z,22.92
2018-07-15T06:55:03.792Z,23.5
2018-07-15T06:56:03.999Z,23.87
2018-07-15T06:57:03.524Z,24.33
2018-07-15T06:58:03.776Z,24.87
2018-07-15T06:59:03.518Z,25.2
2018-07-15T07:00:03.776Z,25.6
2018-07-15T07:01:03.772Z,25.93
2018-07-15T07:02:03.775Z,26.39
2018-07-15T07:03:03.518Z,26.89
2018-07-15T07:04:03.520Z,27.34
2018-07-15T07:05:03.526Z,27.8
2018-07-15T07:06:03.779Z,28.17
2018-07-15T07:07:03.523Z,28.48
2018-07-15T07:08:03.786Z,28.91
2018-07-15T07:09:03.782Z,29.1
2018-07-15T07:10:03.531Z,29.17
2018-07-15T07:11:03.532Z,29.33
2018-07-15T07:12:03.796Z,29.43
2018-07-15T07:13:03.792Z,29.45
2018-07-15T07:14:03.825Z,29.35
2018-07-15T07:15:03.810Z,29.54
2018-07-15T07:16:03.801Z,29.65
2018-07-15T07:17:03.807Z,29.92
2018-07-15T07:18:03.809Z,29.91
2018-07-15T07:19:03.815Z,29.95
2018-07-15T07:20:03.819Z,30.03
2018-07-15T07:21:03.564Z,30.18
2018-07-15T07:22:03.567Z,30.32
2018-07-15T07:23:03.568Z,30.7
2018-07-15T07:24:03.572Z,30.78
2018-07-15T07:25:03.585Z,30.82
2018-07-15T07:26:03.586Z,31.01
2018-07-15T07:27:03.850Z,30.54
2018-07-15T07:28:03.594Z,29.75
2018-07-15T07:29:03.602Z,28.67
2018-07-15T07:30:03.861Z,27.69
2018-07-15T07:31:03.861Z,26.97
2018-07-15T07:32:03.901Z,27.16
2018-07-15T07:33:03.881Z,27.61
2018-07-15T07:34:03.882Z,28.09
2018-07-15T07:35:03.375Z,28.35
2018-07-15T07:36:03.374Z,28.64
2018-07-15T07:37:03.636Z,28.97
2018-07-15T07:38:03.902Z,29.32
2018-07-15T07:39:03.902Z,29.67
2018-07-15T07:40:03.649Z,29.82
2018-07-15T07:41:03.655Z,30.06
2018-07-15T07:42:03.921Z,30.25
2018-07-15T07:43:03.918Z,30.28
2018-07-15T07:44:03.672Z,30.03
2018-07-15T07:45:03.418Z,30.07
2018-07-15T07:46:03.938Z,30.16
2018-07-15T07:47:04.400Z,30.31
2018-07-15T07:48:03.690Z,30.54
2018-07-15T07:49:03.952Z,30.6
2018-07-15T07:50:03.707Z,30.51
2018-07-15T07:51:03.725Z,30.59
2018-07-15T07:52:03.710Z,30.77
2018-07-15T07:53:03.977Z,30.97
2018-07-15T07:54:03.986Z,31.16
2018-07-15T07:55:03.473Z,31.07
2018-07-15T07:56:03.740Z,30.93
2018-07-15T07:57:04.005Z,30.84
2018-07-15T07:58:03.753Z,30.88
2018-07-15T07:59:03.757Z,31.06
2018-07-15T08:00:03.777Z,31.31
2018-07-15T08:01:03.769Z,31.63
2018-07-15T08:02:04.145Z,31.8
2018-07-15T08:03:04.083Z,31.9
2018-07-15T08:04:03.788Z,31.98
2018-07-15T08:05:04.060Z,32.05
2018-07-15T08:06:03.799Z,32.03
2018-07-15T08:07:04.063Z,32
2018-07-15T08:08:03.813Z,31.97
2018-07-15T08:09:03.815Z,31.98
2018-07-15T08:10:03.824Z,32.15
2018-07-15T08:11:04.090Z,32.15
2018-07-15T08:12:03.833Z,32.05
2018-07-15T08:13:03.851Z,31.63
2018-07-15T08:14:04.110Z,31.3
2018-07-15T08:15:04.112Z,31.21
2018-07-15T08:16:04.121Z,31.12
2018-07-15T08:17:03.607Z,30.85
2018-07-15T08:18:04.133Z,30.52
2018-07-15T08:19:04.148Z,30.37
2018-07-15T08:20:03.875Z,30.18
2018-07-15T08:21:03.628Z,29.88
2018-07-15T08:22:04.146Z,29.32
2018-07-15T08:23:04.161Z,28.65
2018-07-15T08:24:03.897Z,28.26
2018-07-15T08:25:04.160Z,27.81
2018-07-15T08:26:03.908Z,27.52
2018-07-15T08:27:03.912Z,27.3
2018-07-15T08:28:04.013Z,27.04
2018-07-15T08:29:04.179Z,26.78
2018-07-15T08:30:04.187Z,26.71
2018-07-15T08:31:04.189Z,26.44
2018-07-15T08:32:03.941Z,26.26
2018-07-15T08:33:03.942Z,26.01
2018-07-15T08:34:03.938Z,26.01
2018-07-15T08:35:04.207Z,26.03
2018-07-15T08:36:03.948Z,26.01
2018-07-15T08:37:03.948Z,26.07
2018-07-15T08:38:04.212Z,26.11
2018-07-15T08:39:03.955Z,26
2018-07-15T08:40:03.963Z,25.86
2018-07-15T08:41:04.223Z,25.86
2018-07-15T08:42:03.964Z,25.74
2018-07-15T08:43:03.967Z,25.6
2018-07-15T08:44:03.722Z,25.34
2018-07-15T08:45:03.979Z,25.34
2018-07-15T08:46:04.428Z,25.29
2018-07-15T08:47:04.243Z,25.3
2018-07-15T08:48:04.252Z,25.49
2018-07-15T08:49:03.739Z,25.42
2018-07-15T08:50:04.002Z,25.48
2018-07-15T08:51:03.745Z,25.32
2018-07-15T08:52:03.997Z,25.09
2018-07-15T08:53:04.004Z,24.89
2018-07-15T08:54:04.007Z,24.67
2018-07-15T08:55:04.009Z,24.75
2018-07-15T08:56:04.279Z,24.7
2018-07-15T08:57:04.275Z,24.75
2018-07-15T08:58:04.271Z,24.75
2018-07-15T08:59:04.288Z,24.74
2018-07-15T09:00:04.280Z,24.78
2018-07-15T09:01:04.532Z,25.02
2018-07-15T09:02:04.031Z,25.17
2018-07-15T09:03:04.286Z,25.38
2018-07-15T09:04:04.033Z,25.57
2018-07-15T09:05:04.293Z,25.56
2018-07-15T09:06:03.780Z,25.48
2018-07-15T09:07:03.782Z,25.52
2018-07-15T09:08:04.043Z,25.57
2018-07-15T09:09:04.041Z,25.54
2018-07-15T09:10:04.052Z,25.6
2018-07-15T09:11:04.308Z,25.56
2018-07-15T09:12:04.055Z,25.38
2018-07-15T09:13:04.059Z,25.12
2018-07-15T09:14:04.315Z,25.02
2018-07-15T09:15:04.322Z,25.01
2018-07-15T09:16:04.330Z,24.97
2018-07-15T09:17:04.069Z,25.07
2018-07-15T09:18:04.380Z,25.12
2018-07-15T09:19:03.815Z,25.07
2018-07-15T09:20:04.076Z,25.19
2018-07-15T09:21:04.075Z,25.15
2018-07-15T09:22:04.079Z,25.14
2018-07-15T09:23:04.340Z,25.07
2018-07-15T09:24:04.085Z,24.94
2018-07-15T09:25:04.082Z,24.94
2018-07-15T09:26:04.346Z,24.83
2018-07-15T09:27:04.088Z,24.87
2018-07-15T09:28:04.741Z,24.85
2018-07-15T09:29:04.354Z,24.69
2018-07-15T09:30:04.353Z,24.7
2018-07-15T09:31:03.840Z,24.71
2018-07-15T09:32:04.357Z,24.69
2018-07-15T09:33:04.104Z,24.77
2018-07-15T09:34:04.103Z,24.71
2018-07-15T09:35:04.385Z,24.69
2018-07-15T09:36:04.109Z,24.71
2018-07-15T09:37:04.374Z,24.78
2018-07-15T09:38:04.376Z,24.7
2018-07-15T09:39:04.112Z,24.89
2018-07-15T09:40:04.376Z,24.93
2018-07-15T09:41:04.124Z,24.96
2018-07-15T09:42:04.120Z,24.86
2018-07-15T09:43:04.120Z,25.02
2018-07-15T09:44:04.129Z,24.92
2018-07-15T09:45:03.870Z,24.94
2018-07-15T09:46:04.381Z,25.07
2018-07-15T09:47:04.389Z,25.2
2018-07-15T09:48:04.152Z,25.22
2018-07-15T09:49:04.130Z,25.23
2018-07-15T09:50:04.392Z,25.27
2018-07-15T09:51:04.394Z,25.27
2018-07-15T09:52:03.879Z,25.27
2018-07-15T09:53:04.136Z,25.23
2018-07-15T09:54:04.395Z,25.24
2018-07-15T09:55:04.400Z,25.12
2018-07-15T09:56:04.147Z,25.02
2018-07-15T09:57:04.407Z,25.01
2018-07-15T09:58:03.892Z,25.01
2018-07-15T09:59:04.149Z,24.94
2018-07-15T10:00:04.423Z,25.02
2018-07-15T10:01:04.155Z,25.09
2018-07-15T10:02:04.156Z,25.11
2018-07-15T10:03:04.158Z,25.12
2018-07-15T10:04:04.423Z,25.24
2018-07-15T10:05:04.422Z,25.32
2018-07-15T10:06:04.424Z,25.33
2018-07-15T10:07:04.426Z,25.56
2018-07-15T10:08:04.170Z,25.56
2018-07-15T10:09:04.168Z,25.52
2018-07-15T10:10:04.432Z,25.54
2018-07-15T10:11:03.916Z,25.51
2018-07-15T10:12:04.436Z,25.52
2018-07-15T10:13:04.176Z,25.52
2018-07-15T10:14:04.181Z,25.57
2018-07-15T10:15:04.439Z,25.54
2018-07-15T10:16:04.440Z,25.59
2018-07-15T10:17:04.183Z,25.47
2018-07-15T10:18:04.187Z,25.57
2018-07-15T10:19:04.840Z,25.52
2018-07-15T10:20:04.449Z,25.59
2018-07-15T10:21:04.469Z,25.52
2018-07-15T10:22:04.196Z,25.52
2018-07-15T10:23:04.456Z,25.49
2018-07-15T10:24:04.461Z,25.59
2018-07-15T10:25:03.943Z,25.71
2018-07-15T10:26:04.460Z,25.7
2018-07-15T10:27:04.203Z,25.69
2018-07-15T10:28:04.206Z,25.62
2018-07-15T10:29:03.949Z,25.47
2018-07-15T10:30:04.212Z,25.52
2018-07-15T10:31:04.214Z,25.49
2018-07-15T10:32:04.213Z,25.57
2018-07-15T10:33:04.277Z,25.56
2018-07-15T10:34:03.963Z,25.57
2018-07-15T10:35:04.223Z,25.54
2018-07-15T10:36:04.480Z,25.59
2018-07-15T10:37:04.225Z,25.63
2018-07-15T10:38:04.485Z,25.66
2018-07-15T10:39:04.712Z,25.69
2018-07-15T10:40:04.498Z,25.7
2018-07-15T10:41:04.237Z,25.82
2018-07-15T10:42:04.231Z,25.96
2018-07-15T10:43:04.496Z,26.01
2018-07-15T10:44:03.983Z,26.15
2018-07-15T10:45:04.240Z,26.12
2018-07-15T10:46:04.242Z,26.31
2018-07-15T10:47:04.506Z,26.27
2018-07-15T10:48:04.247Z,26.3
2018-07-15T10:49:04.248Z,26.3
2018-07-15T10:50:04.253Z,26.38
2018-07-15T10:51:04.254Z,26.44
2018-07-15T10:52:04.513Z,26.52
2018-07-15T10:53:04.702Z,26.42
2018-07-15T10:54:04.263Z,26.44
2018-07-15T10:55:04.263Z,26.34
2018-07-15T10:56:04.265Z,26.31
2018-07-15T10:57:04.009Z,26.31
2018-07-15T10:58:04.269Z,26.15
2018-07-15T10:59:04.273Z,26.04
2018-07-15T11:00:04.290Z,26.03
2018-07-15T11:01:04.373Z,25.99
2018-07-15T11:02:04.536Z,25.89
2018-07-15T11:03:04.279Z,25.69
2018-07-15T11:04:04.027Z,25.56
2018-07-15T11:05:04.547Z,25.54
2018-07-15T11:06:04.292Z,25.49
2018-07-15T11:07:04.295Z,25.47
2018-07-15T11:08:04.553Z,25.63
2018-07-15T11:09:04.044Z,25.63
2018-07-15T11:10:04.298Z,25.78
2018-07-15T11:11:04.298Z,25.88
2018-07-15T11:12:04.307Z,26
2018-07-15T11:13:04.565Z,26
2018-07-15T11:14:04.563Z,26.04
2018-07-15T11:15:04.313Z,26.19
2018-07-15T11:16:04.597Z,26.24
2018-07-15T11:17:04.570Z,26.3
2018-07-15T11:18:04.058Z,26.35
2018-07-15T11:19:04.321Z,26.49
2018-07-15T11:20:04.608Z,26.5
2018-07-15T11:21:04.321Z,26.45
2018-07-15T11:22:04.584Z,26.52
2018-07-15T11:23:04.587Z,26.38
2018-07-15T11:24:04.588Z,26.3
2018-07-15T11:25:04.598Z,26.12
2018-07-15T11:26:04.733Z,26.19
2018-07-15T11:27:04.341Z,26.17
2018-07-15T11:28:04.085Z,26.27
2018-07-15T11:29:04.348Z,26.31
2018-07-15T11:30:04.346Z,26.22
2018-07-15T11:31:04.676Z,26.26
2018-07-15T11:32:04.097Z,26.24
2018-07-15T11:33:04.611Z,26.22
2018-07-15T11:34:04.612Z,26.11
2018-07-15T11:35:04.362Z,26.26
2018-07-15T11:36:04.366Z,26.3
2018-07-15T11:37:04.107Z,26.26
2018-07-15T11:38:04.111Z,26.17
2018-07-15T11:39:04.787Z,26.06
2018-07-15T11:40:04.630Z,26.03
2018-07-15T11:41:04.389Z,25.85
2018-07-15T11:42:04.384Z,25.84
2018-07-15T11:43:04.377Z,25.93
2018-07-15T11:44:04.644Z,26.01
2018-07-15T11:45:04.644Z,26.01
2018-07-15T11:46:04.650Z,26.04
2018-07-15T11:47:04.645Z,26.17
2018-07-15T11:48:04.447Z,26.24
2018-07-15T11:49:04.655Z,26.26
2018-07-15T11:50:04.653Z,26.31
2018-07-15T11:51:04.142Z,26.32
2018-07-15T11:52:04.145Z,26.34
2018-07-15T11:53:04.406Z,26.35
2018-07-15T11:54:04.666Z,26.27
2018-07-15T11:55:04.669Z,26.16
2018-07-15T11:56:04.156Z,26.06
2018-07-15T11:57:04.686Z,25.93
2018-07-15T11:58:04.418Z,25.78
2018-07-15T11:59:04.721Z,25.57
2018-07-15T12:00:04.679Z,25.32
2018-07-15T12:01:04.423Z,25.12
2018-07-15T12:02:04.985Z,24.94
2018-07-15T12:03:04.443Z,24.87
2018-07-15T12:04:04.441Z,24.83
2018-07-15T12:05:04.766Z,24.96
2018-07-15T12:06:04.696Z,25.07
2018-07-15T12:07:04.700Z,25.19
2018-07-15T12:08:04.705Z,25.38
2018-07-15T12:09:04.705Z,25.49
2018-07-15T12:10:04.452Z,25.79
2018-07-15T12:11:04.794Z,26.07
2018-07-15T12:12:04.451Z,26.16
2018-07-15T12:13:04.709Z,26.15
2018-07-15T12:14:04.457Z,26.16
2018-07-15T12:15:04.461Z,26.24
2018-07-15T12:16:04.461Z,26.19
2018-07-15T12:17:04.728Z,26.32
2018-07-15T12:18:04.472Z,26.49
2018-07-15T12:19:04.478Z,26.63
2018-07-15T12:20:04.735Z,26.76
2018-07-15T12:21:04.475Z,26.82
2018-07-15T12:22:04.740Z,26.78
2018-07-15T12:23:04.480Z,26.84
2018-07-15T12:24:04.485Z,26.9
2018-07-15T12:25:04.752Z,26.86
2018-07-15T12:26:04.491Z,26.78
2018-07-15T12:27:04.497Z,26.78
2018-07-15T12:28:04.500Z,26.86
2018-07-15T12:29:04.772Z,26.84
2018-07-15T12:30:04.542Z,26.69
2018-07-15T12:31:04.524Z,26.72
2018-07-15T12:32:04.528Z,26.67
2018-07-15T12:33:04.517Z,26.78
2018-07-15T12:34:04.794Z,26.64
2018-07-15T12:35:04.804Z,26.49
2018-07-15T12:36:04.562Z,26.6
2018-07-15T12:37:04.528Z,26.54
2018-07-15T12:38:04.796Z,26.61
2018-07-15T12:39:04.530Z,26.54
2018-07-15T12:40:04.539Z,26.52
2018-07-15T12:41:04.794Z,26.49
2018-07-15T12:42:04.806Z,26.64
2018-07-15T12:43:04.803Z,26.64
2018-07-15T12:44:04.806Z,26.59
2018-07-15T12:45:04.857Z,26.64
2018-07-15T12:46:04.554Z,26.49
2018-07-15T12:47:04.817Z,26.47
2018-07-15T12:48:04.562Z,26.59
2018-07-15T12:49:04.311Z,26.59
2018-07-15T12:50:04.569Z,26.61
2018-07-15T12:51:04.570Z,26.5
2018-07-15T12:52:04.959Z,26.38
2018-07-15T12:53:04.577Z,26.44
2018-07-15T12:54:04.582Z,26.34
2018-07-15T12:55:04.327Z,26.35